createdAt,value
2023-04-28T00:04:59.379Z,16.03
2023-04-28T00:10:03.281Z,16.03
2023-04-28T00:15:08.954Z,16.09
2023-04-28T00:20:12.746Z,16.12
2023-04-28T00:25:15.595Z,16.10
2023-04-28T00:30:19.974Z,16.07
2023-04-28T00:35:23.470Z,15.92
2023-04-28T00:40:34.583Z,15.95
2023-04-28T00:45:38.644Z,15.93
2023-04-28T00:50:43.195Z,15.82
2023-04-28T00:55:48.947Z,15.80
2023-04-28T01:00:52.043Z,15.78
2023-04-28T01:05:55.856Z,15.76
2023-04-28T01:10:59.900Z,15.73
2023-04-28T01:16:22.577Z,15.68
2023-04-28T01:21:31.179Z,15.65
2023-04-28T01:26:37.917Z,15.64
2023-04-28T01:31:43.877Z,15.56
2023-04-28T01:36:47.909Z,15.43
2023-04-28T01:41:51.356Z,15.37
2023-04-28T01:46:54.864Z,15.45
2023-04-28T01:51:58.846Z,15.43
2023-04-28T01:57:02.685Z,15.41
2023-04-28T02:02:08.369Z,15.41
2023-04-28T02:07:12.165Z,15.39
2023-04-28T02:12:15.215Z,15.33
2023-04-28T02:17:18.334Z,15.29
2023-04-28T02:22:21.598Z,15.27
2023-04-28T02:27:24.536Z,15.24
2023-04-28T02:32:27.503Z,15.29
2023-04-28T02:37:30.800Z,15.32
2023-04-28T02:42:33.592Z,15.38
2023-04-28T02:47:36.706Z,15.46
2023-04-28T02:52:41.926Z,15.48
2023-04-28T02:57:44.723Z,15.63
2023-04-28T03:02:47.360Z,15.67
2023-04-28T03:07:50.594Z,15.73
2023-04-28T03:12:53.778Z,15.84
2023-04-28T03:17:59.021Z,15.92
2023-04-28T03:23:04.021Z,15.95
2023-04-28T03:28:07.035Z,16.09
2023-04-28T03:33:09.838Z,16.10
2023-04-28T03:38:13.788Z,16.22
2023-04-28T03:43:19.102Z,16.35
2023-04-28T03:48:44.065Z,16.47
2023-04-28T03:53:48.204Z,16.58
2023-04-28T03:58:53.657Z,16.71
2023-04-28T04:03:59.129Z,16.86
2023-04-28T04:09:02.670Z,17.02
2023-04-28T04:14:08.950Z,17.13
2023-04-28T04:19:13.257Z,17.25
2023-04-28T04:24:19.379Z,17.41
2023-04-28T04:29:22.200Z,17.54
2023-04-28T04:34:25.960Z,17.70
2023-04-28T04:39:29.033Z,17.81
2023-04-28T04:44:31.732Z,17.97
2023-04-28T04:49:36.030Z,18.09
2023-04-28T04:54:39.250Z,18.28
2023-04-28T04:59:47.439Z,18.38
2023-04-28T05:04:53.672Z,18.51
2023-04-28T05:09:59.088Z,18.64
2023-04-28T05:15:02.532Z,18.78
2023-04-28T05:20:08.710Z,18.89
2023-04-28T05:25:12.879Z,19.02
2023-04-28T05:30:16.113Z,19.18
2023-04-28T05:35:21.220Z,19.37
2023-04-28T05:40:28.799Z,19.45
2023-04-28T05:45:32.346Z,19.63
2023-04-28T05:50:38.915Z,19.73
2023-04-28T05:55:42.578Z,19.90
2023-04-28T06:00:47.276Z,20.09
2023-04-28T06:05:52.237Z,20.19
2023-04-28T06:11:01.335Z,20.31
2023-04-28T06:16:09.121Z,20.40
2023-04-28T06:21:17.541Z,20.55
2023-04-28T06:26:20.316Z,20.70
2023-04-28T06:31:23.046Z,20.87
2023-04-28T06:36:33.051Z,20.95
2023-04-28T06:41:36.200Z,21.03
2023-04-28T06:46:40.884Z,21.09
2023-04-28T06:57:07.644Z,21.30
2023-04-28T07:02:10.803Z,21.42
2023-04-28T07:07:13.583Z,21.46
2023-04-28T07:12:16.414Z,21.58
2023-04-28T07:17:19.393Z,21.71
2023-04-28T07:22:23.155Z,21.73
2023-04-28T07:27:28.630Z,21.83
2023-04-28T07:32:33.771Z,21.95
2023-04-28T07:37:39.991Z,22.06
2023-04-28T07:42:42.659Z,22.09
2023-04-28T07:47:45.255Z,22.20
2023-04-28T07:52:47.996Z,22.27
2023-04-28T07:57:50.708Z,22.36
2023-04-28T08:02:53.522Z,22.45
2023-04-28T08:07:56.516Z,22.52
2023-04-28T08:13:00.205Z,22.56
2023-04-28T08:18:03.159Z,22.71
2023-04-28T08:23:05.970Z,22.79
2023-04-28T08:28:08.928Z,22.89
2023-04-28T08:33:11.623Z,22.94
2023-04-28T08:38:15.772Z,23.05
2023-04-28T08:43:20.957Z,23.12
2023-04-28T08:48:23.788Z,23.13
2023-04-28T08:53:27.638Z,23.23
2023-04-28T08:58:30.554Z,23.37
2023-04-28T09:03:33.763Z,23.41
2023-04-28T09:08:36.620Z,23.46
2023-04-28T09:13:40.255Z,23.52
2023-04-28T09:18:57.271Z,23.60
2023-04-28T09:24:03.303Z,23.69
2023-04-28T09:29:14.048Z,23.75
2023-04-28T09:34:18.041Z,23.88
2023-04-28T09:39:32.019Z,23.88
2023-04-28T09:44:35.774Z,24.02
2023-04-28T09:49:55.856Z,24.10
2023-04-28T09:54:59.730Z,24.18
2023-04-28T10:00:06.960Z,24.38
2023-04-28T10:05:17.295Z,24.48
2023-04-28T10:10:20.646Z,24.69
2023-04-28T10:15:24.021Z,24.88
2023-04-28T10:20:34.236Z,24.98
2023-04-28T10:25:38.779Z,25.15
2023-04-28T10:30:41.844Z,25.44
2023-04-28T10:35:47.620Z,25.75
2023-04-28T10:40:52.166Z,25.95
2023-04-28T11:01:35.084Z,30.24
2023-04-28T11:06:40.795Z,31.94
2023-04-28T11:12:06.964Z,33.60
2023-04-28T11:17:16.495Z,34.34
2023-04-28T11:22:22.814Z,34.60
2023-04-28T11:27:30.021Z,35.41
2023-04-28T11:32:36.019Z,35.89
2023-04-28T11:37:39.155Z,36.07
2023-04-28T11:42:50.633Z,36.04
2023-04-28T11:47:53.282Z,33.98
2023-04-28T11:52:56.122Z,32.64
2023-04-28T11:58:19.662Z,31.69
2023-04-28T12:03:22.808Z,31.59
2023-04-28T12:08:30.703Z,31.11
2023-04-28T12:19:08.061Z,30.74
2023-04-28T12:24:17.455Z,30.39
2023-04-28T12:29:38.280Z,30.24
2023-04-28T12:34:42.478Z,30.40
2023-04-28T12:42:47.488Z,30.20
2023-04-28T12:50:01.527Z,30.47
2023-04-28T12:55:49.122Z,31.29
2023-04-28T13:00:52.737Z,32.22
2023-04-28T13:05:55.447Z,32.86
2023-04-28T13:11:46.297Z,32.79
2023-04-28T13:16:49.379Z,32.99
2023-04-28T13:21:52.341Z,33.00
2023-04-28T13:26:54.957Z,32.91
2023-04-28T13:31:57.631Z,33.15
2023-04-28T13:37:00.256Z,33.28
2023-04-28T13:42:02.858Z,32.53
2023-04-28T13:47:09.232Z,30.95
2023-04-28T13:52:11.853Z,30.62
2023-04-28T13:57:14.453Z,30.38
2023-04-28T14:02:17.017Z,29.73
2023-04-28T14:07:19.887Z,29.29
2023-04-28T14:12:22.435Z,28.75
2023-04-28T14:17:25.092Z,28.31
2023-04-28T14:22:28.007Z,27.61
2023-04-28T14:27:30.736Z,27.21
2023-04-28T14:32:33.394Z,26.80
2023-04-28T14:37:36.393Z,26.37
2023-04-28T14:42:39.231Z,26.23
2023-04-28T14:47:42.166Z,25.93
2023-04-28T14:52:44.801Z,25.76
2023-04-28T14:57:48.383Z,25.53
2023-04-28T15:02:51.073Z,25.36
2023-04-28T15:07:54.055Z,25.41
2023-04-28T15:12:57.115Z,25.35
2023-04-28T15:18:01.165Z,25.21
2023-04-28T15:23:04.044Z,24.99
2023-04-28T15:28:07.466Z,24.64
2023-04-28T15:33:10.537Z,24.40
2023-04-28T15:38:13.669Z,24.11
2023-04-28T15:43:16.309Z,23.96
2023-04-28T15:48:19.007Z,23.88
2023-04-28T15:53:22.571Z,23.57
2023-04-28T15:58:26.093Z,23.46
2023-04-28T16:03:28.811Z,23.20
2023-04-28T16:08:31.715Z,23.01
2023-04-28T16:13:37.150Z,22.65
2023-04-28T16:18:39.772Z,22.53
2023-04-28T16:23:42.307Z,22.44
2023-04-28T16:28:45.052Z,22.37
2023-04-28T16:33:47.589Z,22.31
2023-04-28T16:38:50.252Z,22.20
2023-04-28T16:43:52.857Z,22.06
2023-04-28T16:48:55.752Z,21.91
2023-04-28T16:53:58.356Z,21.94
2023-04-28T16:59:01.169Z,21.89
2023-04-28T17:04:06.938Z,21.86
2023-04-28T17:09:10.285Z,21.76
2023-04-28T17:14:12.804Z,21.69
2023-04-28T17:19:15.612Z,21.65
2023-04-28T17:24:18.452Z,21.49
2023-04-28T17:29:22.326Z,21.43
2023-04-28T17:34:24.932Z,21.20
2023-04-28T17:39:27.519Z,21.07
2023-04-28T17:44:30.091Z,20.83
2023-04-28T17:49:32.806Z,20.72
2023-04-28T17:54:35.564Z,20.58
2023-04-28T17:59:39.876Z,20.39
2023-04-28T18:04:42.414Z,20.39
2023-04-28T18:09:45.157Z,20.33
2023-04-28T18:14:49.071Z,20.23
2023-04-28T18:19:55.222Z,20.10
2023-04-28T18:24:59.881Z,19.91
2023-04-28T18:30:04.052Z,19.81
2023-04-28T18:35:07.300Z,19.67
2023-04-28T18:40:10.407Z,19.68
2023-04-28T18:45:15.094Z,19.78
2023-04-28T18:50:17.910Z,19.84
2023-04-28T18:55:20.869Z,19.77
2023-04-28T19:00:24.108Z,19.76
2023-04-28T19:05:27.346Z,19.76
2023-04-28T19:10:30.150Z,19.76
2023-04-28T19:15:33.840Z,19.75
2023-04-28T19:20:36.516Z,19.78
2023-04-28T19:25:39.352Z,19.79
2023-04-28T19:30:42.022Z,19.77
2023-04-28T19:35:44.636Z,19.78
2023-04-28T19:40:47.648Z,19.75
2023-04-28T19:45:50.304Z,19.71
2023-04-28T19:50:56.523Z,19.60
2023-04-28T19:56:02.101Z,19.56
2023-04-28T20:01:08.707Z,19.52
2023-04-28T20:06:17.083Z,19.36
2023-04-28T20:11:19.900Z,19.04
2023-04-28T20:16:24.945Z,18.80
2023-04-28T20:21:27.958Z,18.64
2023-04-28T20:26:31.436Z,18.52
2023-04-28T20:31:34.054Z,18.46
2023-04-28T20:36:37.934Z,18.43
2023-04-28T20:41:41.336Z,18.42
2023-04-28T20:46:45.566Z,18.39
2023-04-28T20:51:48.185Z,18.29
2023-04-28T20:56:51.895Z,18.36
2023-04-28T21:01:55.097Z,18.26
2023-04-28T21:06:57.623Z,18.17
2023-04-28T21:12:01.210Z,18.13
2023-04-28T21:17:04.164Z,17.97
2023-04-28T21:22:06.799Z,17.91
2023-04-28T21:27:11.717Z,17.68
2023-04-28T21:32:14.454Z,17.58
2023-04-28T21:37:17.304Z,17.47
2023-04-28T21:42:19.853Z,17.37
2023-04-28T21:47:22.825Z,17.21
2023-04-28T21:52:25.490Z,17.25
2023-04-28T21:57:28.113Z,17.11
2023-04-28T22:02:31.050Z,17.09
2023-04-28T22:07:34.510Z,17.07
2023-04-28T22:12:37.419Z,17.12
2023-04-28T22:17:40.561Z,17.02
2023-04-28T22:22:43.310Z,17.10
2023-04-28T22:27:46.052Z,16.98
2023-04-28T22:32:48.762Z,16.88
2023-04-28T22:37:51.468Z,16.83
2023-04-28T22:42:54.090Z,16.80
2023-04-28T22:47:57.036Z,16.91
2023-04-28T22:52:59.979Z,16.94
2023-04-28T22:58:02.560Z,16.92
2023-04-28T23:03:05.216Z,16.28
2023-04-28T23:08:07.906Z,15.82
2023-04-28T23:13:10.647Z,15.86
2023-04-28T23:18:13.353Z,15.87
2023-04-28T23:23:16.139Z,15.81
2023-04-28T23:28:19.127Z,15.21
2023-04-28T23:33:21.808Z,15.07
2023-04-28T23:38:25.533Z,14.84
2023-04-28T23:43:27.932Z,14.74
2023-04-28T23:48:30.777Z,14.75
2023-04-28T23:53:33.447Z,14.70
2023-04-28T23:58:36.038Z,14.95
